Terminal Aerodrome Forecast
Issued by NWS

Home | Current Version | Previous Version | Text Only | Print | Product List | Glossary On
Versions: 1 2 3 4 5 6 7 8 9 10 11 12 13 14 15 16 17 18 19 20
000
FTUS42 KFFC 190533
TAFFTY
TAF
KFTY 190533Z 1906/2006 00000KT P6SM BKN200
     FM191100 11005KT P6SM SCT015 BKN100
     FM191700 14006KT P6SM SCT030 BKN060
     FM192000 14007KT P6SM SCT035 BKN060
     FM200000 15007KT P6SM -SHRA OVC015 PROB30 2003/2006 3SM TSRA
      BKN015CB=

USA.gov is the U.S. government's official web portal to all federal, state and local government web resources and services.